createdAt,value
2022-09-23T00:00:36.876Z,148143.41
2022-09-23T00:01:39.091Z,147555.84
2022-09-23T00:02:42.930Z,148121.56
2022-09-23T00:03:46.150Z,148140.97
2022-09-23T00:04:48.242Z,148128.88
2022-09-23T00:05:58.747Z,140472.44
2022-09-23T00:07:01.007Z,146254.72
2022-09-23T00:08:03.144Z,145334.28
2022-09-23T00:10:39.831Z,140954.66
2022-09-23T00:11:42.087Z,141245.66
2022-09-23T00:12:44.477Z,143991.81
2022-09-23T00:13:48.857Z,144290.53
2022-09-23T00:14:50.960Z,145383.84
2022-09-23T00:15:53.075Z,147378.41
2022-09-23T00:16:55.305Z,147260.16
2022-09-23T00:17:58.067Z,147806.50
2022-09-23T00:19:01.946Z,142754.41
2022-09-23T00:20:05.127Z,146579.19
2022-09-23T00:21:10.758Z,146452.66
2022-09-23T00:22:13.895Z,141115.47
2022-09-23T00:23:16.071Z,142602.16
2022-09-23T00:24:19.649Z,135413.72
2022-09-23T00:25:21.746Z,133741.25
2022-09-23T00:26:24.084Z,138104.84
2022-09-23T00:27:26.406Z,141239.50
2022-09-23T00:28:28.975Z,144915.38
2022-09-23T00:29:31.838Z,143215.91
2022-09-23T00:30:33.959Z,145932.09
2022-09-23T00:31:36.720Z,142366.75
2022-09-23T00:32:40.552Z,147565.56
2022-09-23T00:33:42.961Z,148170.06
2022-09-23T00:34:45.116Z,147743.31
2022-09-23T00:35:47.735Z,148150.66
2022-09-23T00:36:49.952Z,145482.22
2022-09-23T00:37:52.079Z,146495.00
2022-09-23T00:38:54.960Z,148176.13
2022-09-23T00:39:57.339Z,148140.97
2022-09-23T00:41:00.863Z,148162.81
2022-09-23T00:42:03.103Z,145470.66
2022-09-23T00:43:06.016Z,142169.41
2022-09-23T00:44:43.602Z,139817.81
2022-09-23T00:45:50.483Z,148184.59
2022-09-23T00:46:52.710Z,148116.72
2022-09-23T00:47:57.952Z,146597.28
2022-09-23T00:49:29.415Z,143656.81
2022-09-23T00:50:38.160Z,141016.75
2022-09-23T00:51:47.102Z,141600.97
2022-09-23T00:52:52.022Z,139753.84
2022-09-23T00:53:54.217Z,142092.00
2022-09-23T00:55:00.518Z,142195.03
2022-09-23T00:56:07.285Z,146291.56
2022-09-23T00:57:11.501Z,147992.41
2022-09-23T00:58:17.792Z,147886.19
2022-09-23T00:59:21.660Z,148138.56
2022-09-23T01:00:24.498Z,148119.16
2022-09-23T01:01:26.960Z,148114.31
2022-09-23T01:02:29.209Z,148102.22
2022-09-23T01:03:32.177Z,148092.53
2022-09-23T01:04:34.732Z,148068.28
2022-09-23T01:05:36.875Z,148065.84
2022-09-23T01:06:39.003Z,148064.66
2022-09-23T01:07:41.145Z,148053.72
2022-09-23T01:08:47.234Z,148098.56
2022-09-23T01:09:49.973Z,148057.38
2022-09-23T01:11:10.669Z,148133.72
2022-09-23T01:12:18.887Z,148048.88
2022-09-23T01:13:39.880Z,147444.72
2022-09-23T01:14:53.940Z,148142.19
2022-09-23T01:16:08.312Z,148116.72
2022-09-23T01:17:31.383Z,148121.56
2022-09-23T01:19:08.766Z,148124.03
2022-09-23T01:20:36.955Z,148136.16
2022-09-23T01:21:52.626Z,148120.34
2022-09-23T01:23:12.975Z,148056.13
2022-09-23T01:24:39.676Z,144390.41
2022-09-23T01:25:56.796Z,143999.28
2022-09-23T01:27:09.034Z,145268.06
2022-09-23T01:28:23.711Z,143763.66
2022-09-23T01:29:53.885Z,147357.28
2022-09-23T01:31:14.511Z,148204.00
2022-09-23T01:32:31.274Z,148184.59
2022-09-23T01:33:51.328Z,148199.19
2022-09-23T01:35:18.390Z,148212.50
2022-09-23T01:36:28.787Z,148194.34
2022-09-23T01:37:43.775Z,148180.97
2022-09-23T01:39:16.219Z,148182.19
2022-09-23T01:40:44.581Z,148171.28
2022-09-23T01:41:56.474Z,148109.47
2022-09-23T01:43:09.871Z,148188.28
2022-09-23T01:44:21.553Z,148188.28
2022-09-23T01:45:44.234Z,148217.34
2022-09-23T01:46:59.476Z,148218.53
2022-09-23T01:48:13.687Z,148213.72
2022-09-23T01:49:22.006Z,148225.84
2022-09-23T01:50:51.125Z,148225.84
2022-09-23T01:52:10.032Z,148218.53
2022-09-23T01:53:18.628Z,148218.53
2022-09-23T01:54:35.650Z,148228.28
2022-09-23T01:55:42.513Z,148187.03
2022-09-23T01:56:53.672Z,148213.72
2022-09-23T01:58:04.271Z,148211.28
2022-09-23T01:59:21.487Z,148228.28
2022-09-23T02:00:24.603Z,148189.50
2022-09-23T02:01:36.321Z,148206.44
2022-09-23T02:02:53.136Z,148219.81
2022-09-23T02:04:09.051Z,148229.50
2022-09-23T02:05:18.371Z,148206.44
2022-09-23T02:06:25.447Z,148204.00
2022-09-23T02:08:00.672Z,148216.13
2022-09-23T02:09:08.878Z,148204.00
2022-09-23T02:10:22.999Z,148213.72
2022-09-23T02:11:25.280Z,148148.25
2022-09-23T02:12:30.407Z,148199.19
2022-09-23T02:13:40.094Z,148206.44
2022-09-23T02:14:53.790Z,148223.44
2022-09-23T02:16:01.275Z,148201.59
2022-09-23T02:17:10.993Z,148223.44
2022-09-23T02:18:26.492Z,148225.84
2022-09-23T02:19:36.565Z,148210.06
2022-09-23T02:20:41.988Z,148155.56
2022-09-23T02:21:49.014Z,148214.91
2022-09-23T02:23:07.594Z,148237.97
2022-09-23T02:24:15.075Z,148218.53
2022-09-23T02:25:17.490Z,148177.34
2022-09-23T02:26:29.499Z,148262.28
2022-09-23T02:27:53.002Z,148254.97
2022-09-23T02:29:11.539Z,148268.31
2022-09-23T02:30:19.033Z,148236.75
2022-09-23T02:31:53.748Z,148278.00
2022-09-23T02:33:07.109Z,148263.47
2022-09-23T02:34:35.533Z,148265.91
2022-09-23T02:35:44.090Z,148257.38
2022-09-23T02:37:10.687Z,148281.66
2022-09-23T02:38:21.354Z,148183.41
2022-09-23T02:39:33.963Z,148236.75
2022-09-23T02:41:16.010Z,148250.06
2022-09-23T02:42:29.522Z,148244.00
2022-09-23T02:43:59.789Z,148259.84
2022-09-23T02:45:02.184Z,148184.59
2022-09-23T02:46:06.068Z,148191.91
2022-09-23T02:47:08.777Z,148187.03
2022-09-23T02:48:22.897Z,148252.53
2022-09-23T02:49:28.216Z,148213.72
2022-09-23T02:50:32.466Z,148205.22
2022-09-23T02:51:38.202Z,148157.97
2022-09-23T02:52:41.003Z,148142.19
2022-09-23T02:53:43.525Z,148150.66
2022-09-23T02:54:45.686Z,148134.94
2022-09-23T02:55:47.785Z,148133.72
2022-09-23T02:56:49.953Z,148134.94
2022-09-23T02:57:53.413Z,148133.72
2022-09-23T02:58:55.964Z,148138.56
2022-09-23T02:59:58.531Z,148121.56
2022-09-23T03:01:26.264Z,148210.06
2022-09-23T03:02:51.735Z,148136.16
2022-09-23T03:04:06.721Z,148217.34
2022-09-23T03:05:12.947Z,148138.56
2022-09-23T03:06:30.523Z,148213.72
2022-09-23T03:07:52.299Z,148211.28
2022-09-23T03:09:02.669Z,148193.13
2022-09-23T03:10:13.536Z,148194.34
2022-09-23T03:11:17.509Z,148153.09
2022-09-23T03:12:41.752Z,148213.72
2022-09-23T03:14:07.212Z,148191.91
2022-09-23T03:15:28.005Z,148225.84
2022-09-23T03:16:43.545Z,148182.19
2022-09-23T03:17:51.761Z,148107.06
2022-09-23T03:18:56.805Z,148172.50
2022-09-23T03:20:06.997Z,148160.41
2022-09-23T03:21:17.040Z,148153.09
2022-09-23T03:22:29.850Z,148165.22
2022-09-23T03:23:38.257Z,148145.81
2022-09-23T03:24:44.716Z,148131.31
2022-09-23T03:25:50.338Z,148148.25
2022-09-23T03:26:53.964Z,148124.03
2022-09-23T03:27:59.322Z,148131.31
2022-09-23T03:29:11.430Z,148154.28
2022-09-23T03:30:14.063Z,148094.94
2022-09-23T03:31:17.514Z,148102.22
2022-09-23T03:32:23.606Z,148136.16
2022-09-23T03:33:28.819Z,148102.22
2022-09-23T03:34:34.435Z,148136.16
2022-09-23T03:36:04.087Z,148147.03
2022-09-23T03:37:20.531Z,148174.91
2022-09-23T03:38:26.295Z,148154.28
2022-09-23T03:39:35.654Z,148162.81
2022-09-23T03:40:47.691Z,148164.03
2022-09-23T03:41:53.526Z,148157.97
2022-09-23T03:42:57.428Z,148145.81
2022-09-23T03:44:00.221Z,148124.03
2022-09-23T03:45:08.927Z,148149.44
2022-09-23T03:46:12.514Z,148087.63
2022-09-23T03:47:16.502Z,148128.88
2022-09-23T03:48:18.610Z,148080.38
2022-09-23T03:49:30.414Z,148144.63
2022-09-23T03:50:32.719Z,148085.22
2022-09-23T03:51:34.967Z,148090.09
2022-09-23T03:52:39.665Z,148075.53
2022-09-23T03:53:42.379Z,148092.53
2022-09-23T03:54:45.057Z,148098.56
2022-09-23T03:55:47.850Z,148099.78
2022-09-23T03:56:49.971Z,148098.56
2022-09-23T03:57:52.183Z,148094.94
2022-09-23T03:58:54.286Z,148101.00
2022-09-23T03:59:56.412Z,148092.53
2022-09-23T04:00:58.774Z,148092.53
2022-09-23T04:02:01.811Z,148092.53
2022-09-23T04:03:07.199Z,148090.09
2022-09-23T04:04:13.070Z,148085.22
2022-09-23T04:05:15.333Z,148092.53
2022-09-23T04:06:17.463Z,148092.53
2022-09-23T04:07:19.673Z,148097.38
2022-09-23T04:08:21.819Z,148099.78
2022-09-23T04:09:24.081Z,148097.38
2022-09-23T04:10:26.254Z,148099.78
2022-09-23T04:11:29.017Z,148115.53
2022-09-23T04:12:31.262Z,148092.53
2022-09-23T04:13:33.426Z,148081.59
2022-09-23T04:14:35.570Z,148070.69
2022-09-23T04:15:37.966Z,148048.88
2022-09-23T04:16:40.161Z,148048.88
2022-09-23T04:17:42.372Z,148045.25
2022-09-23T04:18:44.711Z,148039.19
2022-09-23T04:19:46.819Z,148033.13
2022-09-23T04:20:49.248Z,148034.34
2022-09-23T04:21:51.357Z,148027.09
2022-09-23T04:22:53.482Z,148021.00
2022-09-23T04:23:55.868Z,148021.00
2022-09-23T04:24:58.020Z,148022.19
2022-09-23T04:26:00.235Z,148023.41
2022-09-23T04:27:02.661Z,148024.66
2022-09-23T04:28:04.773Z,148022.19
2022-09-23T04:29:07.669Z,148029.50
2022-09-23T04:30:10.475Z,148024.66
2022-09-23T04:31:13.038Z,148027.09
2022-09-23T04:32:15.240Z,148023.41
2022-09-23T04:33:17.463Z,148017.38
2022-09-23T04:34:20.386Z,148022.19
2022-09-23T04:35:22.718Z,148006.47
2022-09-23T04:36:24.854Z,148012.53
2022-09-23T04:37:26.985Z,147990.69
2022-09-23T04:38:29.152Z,147990.69
2022-09-23T04:39:31.371Z,147983.44
2022-09-23T04:40:35.418Z,147983.44
2022-09-23T04:41:37.689Z,147968.94
2022-09-23T04:42:39.892Z,147968.94
2022-09-23T04:43:42.905Z,147978.59
2022-09-23T04:44:45.038Z,147948.31
2022-09-23T04:45:47.153Z,147959.25
2022-09-23T04:46:49.656Z,147960.44
2022-09-23T04:47:51.850Z,147964.09
2022-09-23T04:48:54.082Z,147583.50
2022-09-23T04:49:59.710Z,146791.19
2022-09-23T04:51:10.643Z,139270.22
2022-09-23T04:52:12.780Z,142166.50
2022-09-23T04:53:16.740Z,143789.00
2022-09-23T04:54:18.995Z,144234.78
2022-09-23T04:55:21.985Z,139603.28
2022-09-23T04:56:29.279Z,136959.28
2022-09-23T04:57:31.401Z,142075.56
2022-09-23T04:58:34.489Z,147971.34
2022-09-23T04:59:37.250Z,147973.75
2022-09-23T05:00:39.416Z,147955.56
2022-09-23T05:01:41.722Z,147956.78
2022-09-23T05:02:48.856Z,147687.16
2022-09-23T05:03:53.092Z,146354.00
2022-09-23T05:04:55.420Z,147947.09
2022-09-23T05:05:59.873Z,147971.34
2022-09-23T05:07:03.402Z,147199.41
2022-09-23T05:08:05.759Z,147592.81
2022-09-23T05:09:08.605Z,147293.22
2022-09-23T05:10:10.963Z,144330.59
2022-09-23T05:11:13.143Z,145091.03
2022-09-23T05:12:15.279Z,137541.03
2022-09-23T05:13:17.387Z,136877.66
2022-09-23T05:14:19.981Z,140480.53
2022-09-23T05:15:22.086Z,147665.50
2022-09-23T05:16:24.713Z,146623.91
2022-09-23T05:17:26.938Z,147016.84
2022-09-23T05:18:33.321Z,140981.00
2022-09-23T05:19:35.429Z,138198.75
2022-09-23T05:20:37.635Z,139878.06
2022-09-23T05:21:40.182Z,144913.47
2022-09-23T05:22:42.302Z,140875.72
2022-09-23T05:23:56.410Z,134593.50
2022-09-23T05:25:01.567Z,140687.59
2022-09-23T05:26:09.605Z,136919.00
2022-09-23T05:27:11.849Z,140674.19
2022-09-23T05:28:18.208Z,136549.31
2022-09-23T05:29:20.316Z,139551.94
2022-09-23T05:30:22.452Z,139550.81
2022-09-23T05:31:27.096Z,137908.78
2022-09-23T05:32:29.296Z,143317.44
2022-09-23T05:33:32.542Z,137893.00
2022-09-23T05:34:34.646Z,135189.63
2022-09-23T05:35:36.770Z,135192.94
2022-09-23T05:36:39.366Z,142836.91
2022-09-23T05:37:41.548Z,131160.31
2022-09-23T05:38:44.138Z,127493.94
2022-09-23T05:39:46.240Z,125169.22
2022-09-23T05:40:55.900Z,121221.34
2022-09-23T05:42:00.120Z,128188.59
2022-09-23T05:43:02.225Z,127867.78
2022-09-23T05:44:04.775Z,130554.22
2022-09-23T05:45:07.709Z,132906.97
2022-09-23T05:46:14.431Z,134589.13
2022-09-23T05:47:16.687Z,141755.97
2022-09-23T05:48:18.871Z,139961.50
2022-09-23T05:49:26.603Z,141859.00
2022-09-23T05:50:40.038Z,143074.34
2022-09-23T05:51:42.159Z,142777.09
2022-09-23T05:52:44.319Z,143884.69
2022-09-23T05:53:47.663Z,141188.91
2022-09-23T05:54:49.914Z,148071.91
2022-09-23T05:55:54.272Z,148076.75
2022-09-23T05:56:57.688Z,148090.09
2022-09-23T05:58:01.375Z,148094.94
2022-09-23T05:59:05.031Z,148144.63
2022-09-23T06:00:08.009Z,148136.16
2022-09-23T06:01:18.073Z,148179.75
2022-09-23T06:02:20.346Z,148122.81
2022-09-23T06:03:24.052Z,148188.28
2022-09-23T06:04:26.218Z,148160.41
2022-09-23T06:05:28.342Z,148178.56
2022-09-23T06:06:36.797Z,148276.81
2022-09-23T06:07:38.935Z,148224.66
2022-09-23T06:08:41.997Z,148248.84
2022-09-23T06:09:44.268Z,148252.53
2022-09-23T06:10:53.508Z,148297.44
2022-09-23T06:11:56.593Z,148313.16
2022-09-23T06:12:58.724Z,148310.75
2022-09-23T06:14:02.231Z,148344.69
2022-09-23T06:15:05.057Z,148342.28
2022-09-23T06:16:13.031Z,148399.28
2022-09-23T06:17:15.168Z,148333.81
2022-09-23T06:18:17.385Z,148332.59
2022-09-23T06:19:19.517Z,148360.50
2022-09-23T06:20:21.617Z,148366.53
2022-09-23T06:21:23.738Z,148451.47
2022-09-23T06:22:26.269Z,148412.63
2022-09-23T06:23:28.998Z,148483.03
2022-09-23T06:24:31.835Z,148517.00
2022-09-23T06:25:35.146Z,148575.25
2022-09-23T06:26:38.284Z,148633.50
2022-09-23T06:27:40.409Z,148645.66
2022-09-23T06:28:44.591Z,148740.31
2022-09-23T06:29:46.727Z,148709.97
2022-09-23T06:30:49.409Z,148820.47
2022-09-23T06:31:51.537Z,148895.81
2022-09-23T06:32:55.522Z,148956.53
2022-09-23T06:34:08.131Z,148888.53
2022-09-23T06:35:24.078Z,148934.66
2022-09-23T06:36:41.245Z,149092.66
2022-09-23T06:37:46.343Z,149170.47
2022-09-23T06:38:49.340Z,149189.88
2022-09-23T06:39:52.547Z,149256.75
2022-09-23T06:40:58.013Z,149279.84
2022-09-23T06:42:00.109Z,149231.19
2022-09-23T06:43:02.582Z,149282.28
2022-09-23T06:44:04.839Z,149326.03
2022-09-23T06:45:07.797Z,149352.84
2022-09-23T06:46:15.616Z,149416.06
2022-09-23T06:47:17.770Z,149401.50
2022-09-23T06:48:20.535Z,149453.78
2022-09-23T06:49:22.687Z,149482.97
2022-09-23T06:50:28.359Z,149594.97
2022-09-23T06:51:30.705Z,149576.69
2022-09-23T06:52:32.847Z,149625.34
2022-09-23T06:53:35.538Z,149588.84
2022-09-23T06:54:38.047Z,149635.13
2022-09-23T06:55:41.307Z,149526.75
2022-09-23T06:56:47.386Z,149574.28
2022-09-23T06:57:49.478Z,149549.88
2022-09-23T06:58:52.636Z,149635.13
2022-09-23T06:59:54.733Z,149649.69
2022-09-23T07:01:02.016Z,149661.91
2022-09-23T07:02:04.313Z,149574.28
2022-09-23T07:03:10.095Z,149725.13
2022-09-23T07:04:12.208Z,149721.50
2022-09-23T07:05:16.420Z,149793.38
2022-09-23T07:06:18.581Z,149842.06
2022-09-23T07:07:20.705Z,149871.28
2022-09-23T07:08:23.852Z,149773.84
2022-09-23T07:09:26.042Z,149881.03
2022-09-23T07:10:29.150Z,149958.97
2022-09-23T07:11:31.240Z,149911.47
2022-09-23T07:12:33.994Z,150021.09
2022-09-23T07:13:37.049Z,150061.34
2022-09-23T07:14:39.163Z,149966.28
2022-09-23T07:15:41.554Z,149999.22
2022-09-23T07:16:43.686Z,149927.31
2022-09-23T07:17:45.761Z,150007.72
2022-09-23T07:18:47.863Z,150010.16
2022-09-23T07:19:51.575Z,150051.56
2022-09-23T07:20:58.008Z,150085.66
2022-09-23T07:22:00.184Z,150131.97
2022-09-23T07:23:02.322Z,150188.09
2022-09-23T07:24:04.978Z,150258.75
2022-09-23T07:25:07.476Z,150286.81
2022-09-23T07:26:09.790Z,150313.56
2022-09-23T07:27:16.401Z,150344.06
2022-09-23T07:28:19.176Z,150490.41
2022-09-23T07:29:21.388Z,150376.97
2022-09-23T07:30:25.544Z,150484.34
2022-09-23T07:31:38.283Z,150527.00
2022-09-23T07:32:47.987Z,150644.09
2022-09-23T07:33:57.443Z,150725.88
2022-09-23T07:34:59.567Z,150717.34
2022-09-23T07:36:07.222Z,150827.19
2022-09-23T07:37:10.597Z,150829.63
2022-09-23T07:38:12.964Z,150783.25
2022-09-23T07:39:15.115Z,150602.66
2022-09-23T07:40:17.363Z,150388.00
2022-09-23T07:41:19.679Z,150519.69
2022-09-23T07:42:21.939Z,150612.38
2022-09-23T07:43:24.090Z,150668.50
2022-09-23T07:44:26.727Z,150742.91
2022-09-23T07:45:28.890Z,150799.09
2022-09-23T07:46:33.917Z,150844.28
2022-09-23T07:47:36.234Z,150771.03
2022-09-23T07:48:39.085Z,150727.09
2022-09-23T07:49:41.404Z,150753.97
2022-09-23T07:50:43.510Z,150755.19
2022-09-23T07:51:46.174Z,150744.22
2022-09-23T07:52:52.366Z,150763.72
2022-09-23T07:53:55.503Z,150888.22
2022-09-23T07:54:57.638Z,150746.66
2022-09-23T07:55:59.747Z,150819.88
2022-09-23T07:57:01.899Z,150835.72
2022-09-23T07:58:04.032Z,150697.78
2022-09-23T07:59:08.939Z,150756.41
2022-09-23T08:00:13.586Z,150783.25
2022-09-23T08:01:15.751Z,150727.09
2022-09-23T08:02:17.887Z,150836.94
2022-09-23T08:03:20.358Z,150771.03
2022-09-23T08:04:29.128Z,150876.03
2022-09-23T08:05:31.834Z,150907.72
2022-09-23T08:06:34.248Z,150982.25
2022-09-23T08:07:36.380Z,151081.13
2022-09-23T08:08:40.629Z,151232.59
2022-09-23T08:09:44.006Z,151164.19
2022-09-23T08:10:46.234Z,151255.84
2022-09-23T08:11:49.430Z,151479.50
2022-09-23T08:12:52.051Z,151477.06
2022-09-23T08:13:54.851Z,151490.47
2022-09-23T08:14:57.017Z,151576.09
2022-09-23T08:15:59.347Z,151636.00
2022-09-23T08:17:01.539Z,151662.84
2022-09-23T08:18:04.205Z,151752.16
2022-09-23T08:19:07.315Z,151609.09
2022-09-23T08:20:29.845Z,151611.53
2022-09-23T08:21:32.109Z,151654.31
2022-09-23T08:22:34.295Z,151637.22
2022-09-23T08:23:36.496Z,151638.44
2022-09-23T08:24:38.618Z,151535.72
2022-09-23T08:25:44.967Z,151671.44
2022-09-23T08:26:48.504Z,151650.66
2022-09-23T08:27:50.620Z,151664.06
2022-09-23T08:28:56.497Z,151624.97
2022-09-23T08:29:58.610Z,151595.63
2022-09-23T08:31:01.323Z,151634.78
2022-09-23T08:32:03.566Z,151594.41
2022-09-23T08:33:05.723Z,151494.13
2022-09-23T08:34:08.333Z,151477.06
2022-09-23T08:35:10.892Z,151423.28
2022-09-23T08:36:13.082Z,151362.13
2022-09-23T08:37:15.212Z,151257.06
2022-09-23T08:38:17.766Z,151138.53
2022-09-23T08:39:20.772Z,151150.78
2022-09-23T08:40:24.281Z,151098.25
2022-09-23T08:41:44.755Z,151154.44
2022-09-23T08:42:48.998Z,151076.25
2022-09-23T08:43:59.400Z,151181.31
2022-09-23T08:45:05.582Z,151128.78
2022-09-23T08:46:13.513Z,150852.81
2022-09-23T08:47:27.915Z,151018.88
2022-09-23T08:48:46.323Z,151095.81
2022-09-23T08:49:53.745Z,150939.50
2022-09-23T08:51:03.683Z,150981.03
2022-09-23T08:52:16.471Z,150731.94
2022-09-23T08:53:26.257Z,150644.09
2022-09-23T08:54:30.986Z,150769.81
2022-09-23T08:55:43.590Z,150790.56
2022-09-23T08:56:53.224Z,150734.38
2022-09-23T08:58:24.816Z,150700.22
2022-09-23T08:59:45.592Z,150818.66
2022-09-23T09:00:56.157Z,150778.41
2022-09-23T09:02:02.475Z,150807.63
2022-09-23T09:03:23.890Z,150774.69
2022-09-23T09:04:44.617Z,150849.16
2022-09-23T09:05:54.151Z,150849.16
2022-09-23T09:08:38.122Z,150761.28
2022-09-23T09:09:47.105Z,150716.13
2022-09-23T09:10:50.422Z,150753.97
2022-09-23T09:12:00.934Z,150771.03
2022-09-23T09:13:10.826Z,150807.63
2022-09-23T09:14:24.494Z,150793.00
2022-09-23T09:15:27.569Z,150832.06
2022-09-23T09:17:00.424Z,150928.53
2022-09-23T09:18:24.006Z,151059.13
2022-09-23T09:19:35.147Z,151159.31
2022-09-23T09:20:57.394Z,151144.69
2022-09-23T09:22:00.870Z,151237.47
2022-09-23T09:23:26.058Z,151269.28
2022-09-23T09:24:34.076Z,151283.94
2022-09-23T09:25:48.477Z,151193.50
2022-09-23T09:26:50.876Z,151147.13
2022-09-23T09:27:55.822Z,151222.81
2022-09-23T09:29:23.331Z,151219.16
2022-09-23T09:30:28.303Z,151149.56
2022-09-23T09:31:38.239Z,150971.22
2022-09-23T09:33:01.790Z,150981.03
2022-09-23T09:34:32.704Z,151007.91
2022-09-23T09:36:16.359Z,150956.59
2022-09-23T09:37:25.605Z,150982.25
2022-09-23T09:38:27.919Z,150717.34
2022-09-23T09:39:30.955Z,150805.19
2022-09-23T09:40:35.094Z,150736.81
2022-09-23T09:41:40.277Z,150802.75
2022-09-23T09:42:46.845Z,150900.41
2022-09-23T09:43:53.393Z,150723.44
2022-09-23T09:45:15.120Z,150900.41
2022-09-23T09:46:55.344Z,150961.47
2022-09-23T09:48:02.041Z,150946.84
2022-09-23T09:49:25.270Z,150673.38
2022-09-23T09:50:49.329Z,150639.22
2022-09-23T09:52:22.519Z,150744.22
2022-09-23T09:53:27.010Z,150742.91
2022-09-23T09:54:29.920Z,150883.34
2022-09-23T09:55:32.228Z,150965.13
2022-09-23T09:56:36.260Z,151161.75
2022-09-23T09:57:44.822Z,150993.22
2022-09-23T09:59:00.638Z,151115.38
2022-09-23T10:00:21.714Z,151336.50
2022-09-23T10:01:27.185Z,151206.97
2022-09-23T10:02:36.906Z,151330.34
2022-09-23T10:03:41.442Z,151356.03
2022-09-23T10:04:43.738Z,151467.25
2022-09-23T10:05:45.788Z,151609.09
2022-09-23T10:07:04.793Z,151660.41
2022-09-23T10:08:33.441Z,151653.09
2022-09-23T10:09:38.100Z,151562.56
2022-09-23T10:10:54.845Z,151697.09
2022-09-23T10:12:25.950Z,151477.06
2022-09-23T10:13:30.061Z,151616.41
2022-09-23T10:14:32.248Z,151780.31
2022-09-23T10:15:44.907Z,151457.47
2022-09-23T10:17:05.501Z,151638.44
2022-09-23T10:18:47.319Z,151803.56
2022-09-23T10:20:00.750Z,151839.00
2022-09-23T10:21:14.445Z,151988.25
2022-09-23T10:22:24.052Z,152032.38
2022-09-23T10:23:29.124Z,152007.84
2022-09-23T10:24:36.307Z,151910.00
2022-09-23T10:25:38.490Z,151831.69
2022-09-23T10:26:54.991Z,151934.47
2022-09-23T10:27:57.156Z,151843.91
2022-09-23T10:29:03.153Z,151780.31
2022-09-23T10:30:21.633Z,151793.72
2022-09-23T10:31:25.413Z,151736.28
2022-09-23T10:32:29.333Z,151820.66
2022-09-23T10:33:31.832Z,151794.94
2022-09-23T10:34:34.943Z,151692.19
2022-09-23T10:35:56.111Z,151655.53
2022-09-23T10:37:15.627Z,151790.06
2022-09-23T10:38:17.734Z,151826.75
2022-09-23T10:39:38.058Z,151485.59
2022-09-23T10:41:01.818Z,151642.09
2022-09-23T10:42:31.610Z,151841.44
2022-09-23T10:44:17.377Z,151810.88
2022-09-23T10:45:54.454Z,151976.03
2022-09-23T10:47:22.882Z,152078.84
2022-09-23T10:48:40.753Z,151640.88
2022-09-23T10:49:56.521Z,151577.31
2022-09-23T10:50:59.736Z,151577.31
2022-09-23T10:52:38.016Z,151587.06
2022-09-23T10:53:58.672Z,151610.31
2022-09-23T10:55:47.238Z,151694.66
2022-09-23T10:57:02.625Z,151716.66
2022-09-23T10:58:35.473Z,151697.09
2022-09-23T10:59:49.795Z,151650.66
2022-09-23T11:01:17.052Z,151513.72
2022-09-23T11:02:37.912Z,151628.63
2022-09-23T11:04:03.067Z,151788.84
2022-09-23T11:05:19.606Z,151808.44
2022-09-23T11:06:37.520Z,151777.84
2022-09-23T11:08:09.020Z,151748.50
2022-09-23T11:09:22.236Z,151819.41
2022-09-23T11:10:45.916Z,151894.06
2022-09-23T11:12:12.557Z,151525.91
2022-09-23T11:13:17.685Z,151287.63
2022-09-23T11:14:30.070Z,151384.13
2022-09-23T11:16:05.983Z,151527.13
2022-09-23T11:17:15.167Z,151105.56
2022-09-23T11:18:47.735Z,151120.25
2022-09-23T11:20:09.618Z,151174.00
2022-09-23T11:21:44.155Z,151254.63
2022-09-23T11:23:09.645Z,151349.91
2022-09-23T11:24:32.765Z,151303.47
2022-09-23T11:25:47.093Z,151191.06
2022-09-23T11:26:53.130Z,151241.16
2022-09-23T11:28:21.807Z,151296.16
2022-09-23T11:29:36.445Z,151281.50
2022-09-23T11:30:45.658Z,151455.03
2022-09-23T11:32:27.595Z,151334.00
2022-09-23T11:33:46.197Z,151152.00
2022-09-23T11:35:25.943Z,151150.78
2022-09-23T11:36:34.072Z,151274.19
2022-09-23T11:37:43.677Z,151315.72
2022-09-23T11:38:49.352Z,151249.72
2022-09-23T11:39:56.422Z,151269.28
2022-09-23T11:41:20.623Z,151402.47
2022-09-23T11:42:36.688Z,151437.97
2022-09-23T11:43:41.393Z,151412.28
2022-09-23T11:44:49.017Z,151489.25
2022-09-23T11:46:15.860Z,151609.09
2022-09-23T11:47:30.114Z,151680.00
2022-09-23T11:48:48.024Z,151737.53
2022-09-23T11:50:00.096Z,151792.50
2022-09-23T11:51:13.187Z,151776.63
2022-09-23T11:52:24.755Z,151870.84
2022-09-23T11:53:48.353Z,151971.16
2022-09-23T11:55:15.768Z,152100.91
2022-09-23T11:56:35.195Z,152137.59
2022-09-23T11:58:07.685Z,152157.16
2022-09-23T11:59:38.808Z,152120.44
2022-09-23T12:00:53.951Z,152213.50
2022-09-23T12:02:17.442Z,152173.13
2022-09-23T12:03:41.470Z,152301.69
2022-09-23T12:04:57.905Z,152236.78
2022-09-23T12:06:05.421Z,152299.22
2022-09-23T12:07:16.677Z,152366.59
2022-09-23T12:08:29.195Z,152279.59
2022-09-23T12:09:58.538Z,152283.25
2022-09-23T12:11:10.239Z,152255.09
2022-09-23T12:12:29.597Z,152124.09
2022-09-23T12:14:03.074Z,152260.03
2022-09-23T12:15:30.106Z,152038.47
2022-09-23T12:17:07.164Z,152083.75
2022-09-23T12:18:10.588Z,151932.03
2022-09-23T12:19:47.515Z,151720.38
2022-09-23T12:21:27.156Z,151638.44
2022-09-23T12:22:55.011Z,151607.88
2022-09-23T12:24:03.208Z,151552.81
2022-09-23T12:25:33.709Z,151496.56
2022-09-23T12:26:38.406Z,151464.81
2022-09-23T12:27:48.458Z,151538.16
2022-09-23T12:28:54.842Z,151528.34
2022-09-23T12:30:02.271Z,151550.38
2022-09-23T12:31:10.058Z,151540.59
2022-09-23T12:32:18.456Z,151481.94
2022-09-23T12:33:24.716Z,151412.28
2022-09-23T12:34:48.868Z,151513.72
2022-09-23T12:35:56.286Z,151419.59
2022-09-23T12:37:04.793Z,151433.03
2022-09-23T12:38:29.778Z,151428.16
2022-09-23T12:39:35.478Z,151411.00
2022-09-23T12:40:44.420Z,151411.00
2022-09-23T12:41:50.697Z,151403.69
2022-09-23T12:42:53.004Z,151381.69
2022-09-23T12:44:13.914Z,151457.47
2022-09-23T12:45:35.002Z,151406.13
2022-09-23T12:46:37.526Z,151298.59
2022-09-23T12:47:40.214Z,151171.50
2022-09-23T12:48:57.976Z,151244.81
2022-09-23T12:50:01.258Z,151166.63
2022-09-23T12:51:03.361Z,151137.31
2022-09-23T12:52:13.543Z,151264.38
2022-09-23T12:53:33.649Z,151271.75
2022-09-23T12:54:35.850Z,151181.31
2022-09-23T12:55:46.983Z,151281.50
2022-09-23T12:56:51.902Z,151279.06
2022-09-23T12:57:54.010Z,151206.97
2022-09-23T12:59:15.866Z,151264.38
2022-09-23T13:00:20.883Z,151241.16
2022-09-23T13:01:25.351Z,151126.34
2022-09-23T13:02:32.766Z,151187.41
2022-09-23T13:03:53.517Z,151166.63
2022-09-23T13:05:41.892Z,151198.38
2022-09-23T13:07:06.297Z,151127.56
2022-09-23T13:08:19.552Z,151097.03
2022-09-23T13:09:26.812Z,151150.78
2022-09-23T13:10:38.645Z,151035.94
2022-09-23T13:11:44.108Z,151086.00
2022-09-23T13:12:47.255Z,150910.19